createdAt,value
2018-08-09T00:01:41.144Z,94.00
2018-08-09T00:04:10.145Z,94.70
2018-08-09T00:06:39.335Z,94.90
2018-08-09T00:09:09.285Z,95.00
2018-08-09T00:11:38.372Z,95.20
2018-08-09T00:14:07.515Z,94.90
2018-08-09T00:16:36.580Z,95.00
2018-08-09T00:19:05.965Z,94.90
2018-08-09T00:21:35.459Z,94.70
2018-08-09T00:24:05.025Z,94.70
2018-08-09T00:26:34.059Z,94.90
2018-08-09T00:29:03.087Z,95.00
2018-08-09T00:31:32.800Z,95.30
2018-08-09T00:34:01.820Z,95.50
2018-08-09T00:36:30.881Z,95.80
2018-08-09T00:38:59.956Z,95.90
2018-08-09T00:41:29.091Z,96.00
2018-08-09T00:43:58.083Z,95.90
2018-08-09T00:46:27.089Z,96.30
2018-08-09T00:48:56.868Z,96.00
2018-08-09T00:51:25.920Z,95.80
2018-08-09T00:53:54.915Z,95.90
2018-08-09T00:56:23.976Z,96.00
2018-08-09T00:58:53.020Z,96.00
2018-08-09T01:01:22.644Z,96.10
2018-08-09T01:03:51.680Z,95.90
2018-08-09T01:06:20.727Z,96.10
2018-08-09T01:08:55.088Z,96.10
2018-08-09T01:11:24.121Z,96.20
2018-08-09T01:13:53.143Z,95.90
2018-08-09T01:16:22.121Z,96.10
2018-08-09T01:18:51.676Z,96.20
2018-08-09T01:21:20.752Z,96.30
2018-08-09T01:23:49.891Z,96.60
2018-08-09T01:26:18.911Z,96.90
2018-08-09T01:28:49.355Z,97.20
2018-08-09T01:31:28.828Z,97.40
2018-08-09T01:33:57.867Z,97.60
2018-08-09T01:36:26.878Z,97.20
2018-08-09T01:38:56.344Z,97.20
2018-08-09T01:41:26.555Z,97.70
2018-08-09T01:44:05.067Z,97.30
2018-08-09T01:46:34.792Z,97.20
2018-08-09T01:49:03.833Z,97.60
2018-08-09T01:51:32.883Z,97.70
2018-08-09T01:54:02.523Z,97.90
2018-08-09T01:56:31.570Z,97.90
2018-08-09T01:59:00.623Z,98.20
2018-08-09T02:01:29.625Z,98.00
2018-08-09T02:03:58.664Z,98.00
2018-08-09T02:06:27.745Z,98.20
2018-08-09T02:09:00.961Z,98.70
2018-08-09T02:11:29.946Z,98.90
2018-08-09T02:13:58.977Z,99.30
2018-08-09T02:16:28.096Z,99.60
2018-08-09T02:18:57.116Z,99.90
2018-08-09T02:21:26.173Z,99.90
2018-08-09T02:23:55.224Z,99.90
2018-08-09T02:26:24.272Z,99.80
2018-08-09T02:28:53.400Z,99.70
2018-08-09T02:31:22.428Z,99.60
2018-08-09T02:33:51.448Z,99.50
2018-08-09T02:36:20.476Z,99.60
2018-08-09T02:38:49.445Z,99.40
2018-08-09T02:41:18.481Z,99.40
2018-08-09T02:43:47.750Z,99.50
2018-08-09T02:46:16.784Z,99.80
2018-08-09T02:48:45.857Z,99.70
2018-08-09T02:51:17.699Z,99.70
2018-08-09T02:53:46.693Z,99.70
2018-08-09T02:56:16.583Z,99.80
2018-08-09T02:58:45.607Z,99.90
2018-08-09T03:01:14.649Z,99.90
2018-08-09T03:03:43.640Z,99.90
2018-08-09T03:06:12.656Z,99.90
2018-08-09T03:08:41.680Z,99.90
2018-08-09T03:11:10.676Z,99.90
2018-08-09T03:13:40.286Z,99.90
2018-08-09T03:16:09.290Z,99.90
2018-08-09T03:18:38.447Z,99.90
2018-08-09T03:21:07.453Z,99.90
2018-08-09T03:23:36.570Z,99.90
2018-08-09T03:26:05.811Z,99.90
2018-08-09T03:28:34.879Z,99.90
2018-08-09T03:31:03.929Z,99.90
2018-08-09T03:33:33.837Z,99.90
2018-08-09T03:36:02.863Z,99.90
2018-08-09T03:38:31.877Z,99.90
2018-08-09T03:41:01.577Z,99.90
2018-08-09T03:43:30.556Z,99.90
2018-08-09T03:45:59.584Z,99.90
2018-08-09T03:48:28.564Z,99.90
2018-08-09T03:50:58.280Z,99.90
2018-08-09T03:53:27.304Z,99.90
2018-08-09T03:55:56.314Z,99.90
2018-08-09T03:58:25.996Z,99.90
2018-08-09T04:00:55.719Z,99.90
2018-08-09T04:03:24.744Z,99.90
2018-08-09T04:05:53.817Z,99.90
2018-08-09T04:08:22.965Z,99.90
2018-08-09T04:10:51.982Z,99.90
2018-08-09T04:13:21.597Z,99.90
2018-08-09T04:15:51.114Z,99.90
2018-08-09T04:18:20.934Z,99.90
2018-08-09T04:20:50.000Z,99.90
2018-08-09T04:23:19.019Z,99.90
2018-08-09T04:25:48.111Z,99.90
2018-08-09T04:28:17.186Z,99.90
2018-08-09T04:30:46.225Z,99.90
2018-08-09T04:33:15.309Z,99.90
2018-08-09T04:35:44.310Z,99.90
2018-08-09T04:38:13.315Z,99.90
2018-08-09T04:40:42.331Z,99.90
2018-08-09T04:43:11.401Z,99.90
2018-08-09T04:45:40.489Z,99.90
2018-08-09T04:48:09.607Z,99.90
2018-08-09T04:50:38.587Z,99.90
2018-08-09T04:53:07.759Z,99.90
2018-08-09T04:55:37.150Z,99.90
2018-08-09T04:58:06.367Z,99.90
2018-08-09T05:00:35.326Z,99.90
2018-08-09T05:03:04.404Z,99.90
2018-08-09T05:05:33.444Z,99.90
2018-08-09T05:08:02.496Z,99.90
2018-08-09T05:10:31.471Z,99.90
2018-08-09T05:13:00.517Z,99.90
2018-08-09T05:15:29.556Z,99.90
2018-08-09T05:17:58.708Z,99.90
2018-08-09T05:20:27.780Z,99.90
2018-08-09T05:22:58.217Z,99.90
2018-08-09T05:25:27.211Z,99.90
2018-08-09T05:27:56.231Z,99.90
2018-08-09T05:30:25.996Z,99.90
2018-08-09T05:32:55.058Z,99.90
2018-08-09T05:35:24.093Z,99.90
2018-08-09T05:37:53.077Z,99.90
2018-08-09T05:40:22.120Z,99.90
2018-08-09T05:42:51.157Z,99.90
2018-08-09T05:45:20.205Z,99.90
2018-08-09T05:47:49.184Z,99.90
2018-08-09T05:50:18.241Z,99.90
2018-08-09T05:52:47.925Z,99.90
2018-08-09T05:55:16.974Z,99.90
2018-08-09T05:57:45.983Z,99.90
2018-08-09T06:00:15.968Z,99.90
2018-08-09T06:02:45.748Z,99.90
2018-08-09T06:07:41.425Z,99.90
2018-08-09T06:10:10.508Z,99.90
2018-08-09T06:12:39.565Z,99.90
2018-08-09T06:15:08.748Z,99.90
2018-08-09T06:17:37.777Z,99.90
2018-08-09T06:20:07.007Z,99.90
2018-08-09T06:22:36.675Z,99.80
2018-08-09T06:25:06.656Z,99.40
2018-08-09T06:27:35.700Z,99.10
2018-08-09T06:30:06.756Z,99.30
2018-08-09T06:32:35.995Z,99.50
2018-08-09T06:35:06.788Z,99.80
2018-08-09T06:37:36.024Z,99.50
2018-08-09T06:40:07.823Z,99.10
2018-08-09T06:42:37.401Z,99.80
2018-08-09T06:45:06.577Z,99.00
2018-08-09T06:47:35.655Z,99.40
2018-08-09T06:50:05.625Z,98.50
2018-08-09T06:52:34.638Z,98.70
2018-08-09T06:55:07.360Z,99.00
2018-08-09T06:57:36.754Z,99.20
2018-08-09T07:00:09.675Z,99.50
2018-08-09T07:02:38.710Z,99.80
2018-08-09T07:05:07.945Z,99.90
2018-08-09T07:07:37.356Z,99.90
2018-08-09T07:10:07.683Z,99.90
2018-08-09T07:12:36.688Z,99.90
2018-08-09T07:15:08.723Z,99.90
2018-08-09T07:17:38.049Z,99.90
2018-08-09T07:20:08.264Z,99.90
2018-08-09T07:22:39.487Z,99.90
2018-08-09T07:25:08.869Z,99.90
2018-08-09T07:27:41.339Z,99.90
2018-08-09T07:30:12.398Z,99.90
2018-08-09T07:32:41.624Z,99.70
2018-08-09T07:35:11.541Z,99.80
2018-08-09T07:37:40.706Z,99.60
2018-08-09T07:40:11.472Z,99.40
2018-08-09T07:42:41.568Z,99.10
2018-08-09T07:45:12.017Z,99.30
2018-08-09T07:47:41.162Z,99.00
2018-08-09T07:50:10.784Z,98.30
2018-08-09T07:52:40.352Z,98.10
2018-08-09T07:55:10.551Z,98.30
2018-08-09T07:57:39.873Z,98.20
2018-08-09T08:00:11.200Z,98.30
2018-08-09T08:02:40.563Z,98.00
2018-08-09T08:05:09.948Z,98.10
2018-08-09T08:07:39.120Z,98.40
2018-08-09T08:10:09.509Z,98.50
2018-08-09T08:12:38.776Z,99.00
2018-08-09T08:15:09.265Z,99.10
2018-08-09T08:17:38.242Z,98.70
2018-08-09T08:20:07.851Z,98.50
2018-08-09T08:22:37.449Z,98.40
2018-08-09T08:25:09.584Z,98.10
2018-08-09T08:27:38.617Z,98.30
2018-08-09T08:30:10.183Z,97.70
2018-08-09T08:32:40.232Z,97.20
2018-08-09T08:35:10.015Z,96.80
2018-08-09T08:37:40.691Z,97.20
2018-08-09T08:40:10.924Z,97.40
2018-08-09T08:42:40.265Z,98.10
2018-08-09T08:45:12.995Z,97.50
2018-08-09T08:47:42.824Z,97.60
2018-08-09T08:50:12.319Z,97.60
2018-08-09T08:52:42.377Z,97.30
2018-08-09T08:55:12.612Z,97.20
2018-08-09T08:57:41.648Z,96.70
2018-08-09T09:00:11.958Z,97.10
2018-08-09T09:02:41.104Z,96.60
2018-08-09T09:05:12.203Z,96.70
2018-08-09T09:07:41.847Z,96.80
2018-08-09T09:10:12.463Z,96.70
2018-08-09T09:12:41.515Z,96.60
2018-08-09T09:15:16.821Z,96.80
2018-08-09T09:17:47.158Z,96.80
2018-08-09T09:20:17.804Z,96.30
2018-08-09T09:22:46.928Z,96.40
2018-08-09T09:25:21.284Z,96.50
2018-08-09T09:27:50.362Z,96.60
2018-08-09T09:30:19.399Z,96.00
2018-08-09T09:32:48.428Z,95.70
2018-08-09T09:35:22.641Z,94.70
2018-08-09T09:37:51.776Z,93.60
2018-08-09T09:40:22.080Z,91.80
2018-08-09T09:42:51.237Z,90.00
2018-08-09T09:45:20.340Z,88.70
2018-08-09T09:47:49.411Z,88.00
2018-08-09T09:50:18.510Z,89.60
2018-08-09T09:52:47.701Z,90.50
2018-08-09T09:55:16.797Z,90.20
2018-08-09T09:57:45.824Z,91.10
2018-08-09T10:00:20.464Z,91.40
2018-08-09T10:02:49.492Z,91.50
2018-08-09T10:05:19.857Z,91.40
2018-08-09T10:07:48.956Z,89.70
2018-08-09T10:10:18.715Z,87.90
2018-08-09T10:12:47.807Z,83.50
2018-08-09T10:15:17.495Z,81.50
2018-08-09T10:17:46.541Z,79.20
2018-08-09T10:20:22.069Z,77.70
2018-08-09T10:22:51.048Z,76.30
2018-08-09T10:25:20.716Z,76.50
2018-08-09T10:27:49.887Z,75.10
2018-08-09T10:30:18.951Z,73.90
2018-08-09T10:32:48.596Z,74.90
2018-08-09T10:35:17.686Z,74.60
2018-08-09T10:37:46.691Z,74.80
2018-08-09T10:40:16.369Z,72.40
2018-08-09T10:42:45.514Z,72.20
2018-08-09T10:45:15.067Z,71.10
2018-08-09T10:47:44.670Z,71.40
2018-08-09T10:50:13.731Z,72.80
2018-08-09T10:52:42.802Z,73.30
2018-08-09T10:55:12.148Z,71.70
2018-08-09T10:57:41.912Z,71.40
2018-08-09T11:00:12.463Z,71.10
2018-08-09T11:02:41.792Z,70.10
2018-08-09T11:05:10.873Z,70.30
2018-08-09T11:07:39.942Z,71.60
2018-08-09T11:10:09.849Z,73.30
2018-08-09T11:12:38.892Z,73.60
2018-08-09T11:15:10.776Z,73.00
2018-08-09T11:17:40.712Z,72.60
2018-08-09T11:20:09.896Z,71.50
2018-08-09T11:22:39.222Z,70.90
2018-08-09T11:25:09.617Z,69.60
2018-08-09T11:27:39.055Z,68.80
2018-08-09T11:30:08.755Z,69.00
2018-08-09T11:32:37.971Z,68.80
2018-08-09T11:35:07.319Z,69.30
2018-08-09T11:37:36.348Z,69.10
2018-08-09T11:40:05.616Z,67.80
2018-08-09T11:42:34.655Z,67.90
2018-08-09T11:45:03.957Z,66.40
2018-08-09T11:47:32.985Z,65.60
2018-08-09T11:50:02.064Z,66.20
2018-08-09T11:52:31.093Z,66.00
2018-08-09T11:55:00.156Z,66.90
2018-08-09T11:57:29.284Z,66.90
2018-08-09T11:59:58.493Z,68.80
2018-08-09T12:02:27.499Z,69.60
2018-08-09T12:04:56.545Z,71.40
2018-08-09T12:07:25.569Z,72.70
2018-08-09T12:09:54.664Z,73.60
2018-08-09T12:12:23.771Z,72.30
2018-08-09T12:14:52.808Z,73.30
2018-08-09T12:17:22.059Z,73.50
2018-08-09T12:19:51.273Z,73.50
2018-08-09T12:22:20.427Z,74.60
2018-08-09T12:24:49.529Z,76.50
2018-08-09T12:27:18.580Z,78.20
2018-08-09T12:29:47.676Z,80.00
2018-08-09T12:32:16.789Z,81.90
2018-08-09T12:34:46.232Z,83.40
2018-08-09T12:37:16.332Z,84.50
2018-08-09T12:39:45.570Z,85.90
2018-08-09T12:42:14.711Z,87.40
2018-08-09T12:44:44.033Z,88.30
2018-08-09T12:47:13.107Z,89.00
2018-08-09T12:49:42.184Z,90.20
2018-08-09T12:52:11.233Z,90.40
2018-08-09T12:54:40.279Z,90.40
2018-08-09T12:57:09.328Z,90.60
2018-08-09T12:59:38.355Z,90.50
2018-08-09T13:02:08.221Z,90.70
2018-08-09T13:04:37.601Z,91.00
2018-08-09T13:07:07.081Z,91.40
2018-08-09T13:09:36.156Z,91.60
2018-08-09T13:12:05.324Z,91.60
2018-08-09T13:14:34.477Z,91.60
2018-08-09T13:17:03.550Z,91.60
2018-08-09T13:19:33.180Z,92.10
2018-08-09T13:22:02.256Z,92.70
2018-08-09T13:24:31.353Z,93.20
2018-08-09T13:27:01.622Z,93.20
2018-08-09T13:29:30.889Z,95.40
2018-08-09T13:31:59.961Z,98.70
2018-08-09T13:34:29.100Z,98.20
2018-08-09T13:37:01.020Z,98.20
2018-08-09T13:39:30.093Z,96.10
2018-08-09T13:41:59.893Z,96.90
2018-08-09T13:44:28.970Z,94.80
2018-08-09T13:46:58.084Z,92.20
2018-08-09T13:49:27.213Z,90.30
2018-08-09T13:51:56.273Z,91.00
2018-08-09T13:54:25.461Z,92.60
2018-08-09T13:56:54.564Z,94.80
2018-08-09T13:59:25.508Z,93.90
2018-08-09T14:01:54.723Z,95.90
2018-08-09T14:04:24.457Z,95.90
2018-08-09T14:06:53.540Z,98.50
2018-08-09T14:09:22.752Z,99.90
2018-08-09T14:11:51.830Z,99.90
2018-08-09T14:14:20.916Z,99.90
2018-08-09T14:16:50.260Z,99.90
2018-08-09T14:19:19.895Z,99.90
2018-08-09T14:21:49.570Z,99.90
2018-08-09T14:24:18.605Z,99.90
2018-08-09T14:26:47.893Z,99.90
2018-08-09T14:29:16.970Z,99.90
2018-08-09T14:31:46.002Z,99.90
2018-08-09T14:34:15.141Z,99.90
2018-08-09T14:36:44.188Z,99.90
2018-08-09T14:39:13.267Z,99.90
2018-08-09T14:41:42.360Z,99.90
2018-08-09T14:44:11.569Z,99.90
2018-08-09T14:46:40.621Z,99.90
2018-08-09T14:49:09.741Z,99.90
2018-08-09T14:51:39.601Z,99.90
2018-08-09T14:54:12.220Z,99.90
2018-08-09T14:56:41.897Z,99.90
2018-08-09T14:59:11.727Z,99.90
2018-08-09T15:01:40.866Z,99.90
2018-08-09T15:04:10.564Z,99.90
2018-08-09T15:06:40.537Z,99.90
2018-08-09T15:09:11.752Z,99.90
2018-08-09T15:11:40.963Z,99.90
2018-08-09T15:14:10.817Z,99.90
2018-08-09T15:16:40.033Z,99.90
2018-08-09T15:19:09.122Z,99.90
2018-08-09T15:21:38.173Z,99.90
2018-08-09T15:24:08.255Z,99.90
2018-08-09T15:26:37.311Z,99.90
2018-08-09T15:29:07.805Z,99.90
2018-08-09T15:31:36.959Z,99.90
2018-08-09T15:47:05.530Z,99.90
2018-08-09T15:49:34.551Z,99.90
2018-08-09T15:52:03.965Z,99.90
2018-08-09T15:54:33.141Z,99.90
2018-08-09T15:57:02.726Z,99.90
2018-08-09T15:59:31.835Z,99.90
2018-08-09T16:02:00.963Z,99.90
2018-08-09T16:04:30.097Z,99.90
2018-08-09T16:06:59.254Z,99.90
2018-08-09T16:09:29.803Z,99.90
2018-08-09T16:11:58.964Z,99.90
2018-08-09T16:14:28.077Z,99.90
2018-08-09T16:16:57.839Z,99.90
2018-08-09T16:19:26.987Z,99.90
2018-08-09T16:21:56.203Z,99.90
2018-08-09T16:24:25.470Z,99.90
2018-08-09T16:26:55.346Z,99.90
2018-08-09T16:29:24.477Z,99.90
2018-08-09T16:31:54.642Z,99.90
2018-08-09T16:34:24.414Z,99.90
2018-08-09T16:36:54.151Z,99.90
2018-08-09T16:39:23.393Z,99.90
2018-08-09T16:41:52.417Z,99.90
2018-08-09T16:44:21.560Z,99.90
2018-08-09T16:46:50.649Z,99.90
2018-08-09T16:49:19.839Z,99.90
2018-08-09T16:51:48.940Z,99.90
2018-08-09T16:54:18.012Z,99.90
2018-08-09T16:56:50.315Z,99.90
2018-08-09T16:59:20.219Z,99.90
2018-08-09T17:01:49.402Z,99.90
2018-08-09T17:04:19.248Z,99.90
2018-08-09T17:06:48.711Z,99.90
2018-08-09T17:09:18.394Z,99.90
2018-08-09T17:11:47.525Z,99.90
2018-08-09T17:14:16.680Z,99.90
2018-08-09T17:16:46.614Z,99.90
2018-08-09T17:19:15.702Z,99.90
2018-08-09T17:21:44.741Z,99.90
2018-08-09T17:24:13.915Z,99.90
2018-08-09T17:39:42.896Z,99.90
2018-08-09T17:42:12.004Z,99.90
2018-08-09T17:44:41.023Z,99.90
2018-08-09T17:47:10.200Z,99.90
2018-08-09T17:49:39.558Z,99.90
2018-08-09T17:52:09.300Z,99.90
2018-08-09T17:54:38.339Z,99.90
2018-08-09T17:57:07.462Z,99.90
2018-08-09T17:59:36.949Z,99.90
2018-08-09T18:02:06.107Z,99.90
2018-08-09T18:04:35.896Z,99.90
2018-08-09T18:07:05.046Z,99.90
2018-08-09T18:09:34.751Z,99.90
2018-08-09T18:12:04.315Z,99.90
2018-08-09T18:14:33.748Z,99.90
2018-08-09T18:17:02.837Z,99.90
2018-08-09T18:19:31.921Z,99.90
2018-08-09T18:22:01.023Z,99.90
2018-08-09T18:24:30.060Z,99.90
2018-08-09T18:26:59.173Z,99.90
2018-08-09T18:29:28.346Z,99.90
2018-08-09T18:31:58.407Z,99.90
2018-08-09T18:34:27.473Z,99.90
2018-08-09T18:36:57.188Z,99.90
2018-08-09T18:39:26.365Z,99.90
2018-08-09T18:41:55.520Z,99.90
2018-08-09T18:44:25.233Z,99.90
2018-08-09T18:46:54.513Z,99.90
2018-08-09T18:49:23.904Z,99.90
2018-08-09T18:51:53.159Z,99.90
2018-08-09T18:54:22.386Z,99.90
2018-08-09T18:56:51.660Z,99.90
2018-08-09T18:59:21.415Z,99.90
2018-08-09T19:01:51.028Z,99.90
2018-08-09T19:04:20.300Z,99.90
2018-08-09T19:06:50.162Z,99.90
2018-08-09T19:09:19.332Z,99.90
2018-08-09T19:11:49.033Z,99.90
2018-08-09T19:14:18.211Z,99.90
2018-08-09T19:16:47.231Z,99.90
2018-08-09T19:19:16.490Z,99.90
2018-08-09T19:21:45.937Z,99.90
2018-08-09T19:24:15.063Z,99.90
2018-08-09T19:26:44.259Z,99.90
2018-08-09T19:29:14.087Z,99.90
2018-08-09T19:31:43.169Z,99.90
2018-08-09T19:34:12.272Z,99.90
2018-08-09T19:36:41.534Z,99.90
2018-08-09T19:39:13.276Z,99.90
2018-08-09T19:41:43.546Z,99.90
2018-08-09T19:44:13.850Z,99.90
2018-08-09T19:46:43.511Z,99.90
2018-08-09T19:49:13.174Z,99.90
2018-08-09T19:51:42.897Z,99.90
2018-08-09T19:54:11.998Z,99.90
2018-08-09T19:56:41.575Z,99.90
2018-08-09T19:59:11.228Z,99.90
2018-08-09T20:01:40.915Z,99.90
2018-08-09T20:04:10.743Z,99.90
2018-08-09T20:06:39.869Z,99.90
2018-08-09T20:09:10.274Z,99.90
2018-08-09T20:11:39.442Z,99.90
2018-08-09T20:14:08.615Z,99.90
2018-08-09T20:16:37.801Z,99.90
2018-08-09T20:19:07.844Z,99.90
2018-08-09T20:21:37.097Z,99.90
2018-08-09T20:24:06.190Z,99.90
2018-08-09T20:26:35.353Z,99.90
2018-08-09T20:29:05.222Z,99.90
2018-08-09T20:31:34.963Z,99.90
2018-08-09T20:34:04.125Z,99.90
2018-08-09T20:36:33.148Z,99.90
2018-08-09T20:39:02.929Z,99.90
2018-08-09T20:41:32.789Z,99.90
2018-08-09T20:44:02.451Z,99.90
2018-08-09T20:46:31.922Z,99.90
2018-08-09T20:49:01.092Z,99.90
2018-08-09T20:51:30.235Z,99.90
2018-08-09T20:53:59.582Z,99.90
2018-08-09T20:56:28.783Z,99.90
2018-08-09T20:58:58.596Z,99.90
2018-08-09T21:01:27.863Z,99.90
2018-08-09T21:03:57.045Z,99.90
2018-08-09T21:06:26.142Z,99.90
2018-08-09T21:08:55.293Z,99.90
2018-08-09T21:11:24.368Z,99.90
2018-08-09T21:13:56.417Z,99.90
2018-08-09T21:16:25.473Z,99.90
2018-08-09T21:18:55.088Z,99.90
2018-08-09T21:21:24.271Z,99.90
2018-08-09T21:23:54.095Z,99.90
2018-08-09T21:26:23.267Z,99.90
2018-08-09T21:28:52.305Z,99.90
2018-08-09T21:31:21.558Z,99.90
2018-08-09T21:33:51.344Z,99.90
2018-08-09T21:36:20.438Z,99.90
2018-08-09T21:38:49.526Z,99.90
2018-08-09T21:41:18.988Z,99.90
2018-08-09T21:43:48.146Z,99.90
2018-08-09T21:46:18.540Z,99.90
2018-08-09T21:48:47.614Z,99.90
2018-08-09T21:51:16.676Z,99.90
2018-08-09T21:53:45.797Z,99.90
2018-08-09T21:56:15.525Z,99.90
2018-08-09T21:58:46.298Z,99.90
2018-08-09T22:01:15.512Z,99.90
2018-08-09T22:03:44.571Z,99.90
2018-08-09T22:06:18.898Z,99.90
2018-08-09T22:08:53.278Z,99.90
2018-08-09T22:11:27.685Z,99.90
2018-08-09T22:14:01.964Z,99.90
2018-08-09T22:16:36.514Z,99.90
2018-08-09T22:19:11.244Z,99.90
2018-08-09T22:21:45.573Z,99.90
2018-08-09T22:24:14.668Z,99.90
2018-08-09T22:26:43.822Z,99.90
2018-08-09T22:29:12.890Z,99.90
2018-08-09T22:31:41.951Z,99.90
2018-08-09T22:34:10.967Z,99.90
2018-08-09T22:36:40.058Z,99.90
2018-08-09T22:39:09.834Z,99.90
2018-08-09T22:41:38.850Z,99.90
2018-08-09T22:44:08.029Z,99.90
2018-08-09T22:46:37.108Z,99.90
2018-08-09T22:49:06.253Z,99.90
2018-08-09T22:51:35.304Z,99.90
2018-08-09T22:54:04.965Z,99.90
2018-08-09T22:56:34.096Z,99.90
2018-08-09T22:59:03.568Z,99.90
2018-08-09T23:01:33.243Z,99.90
2018-08-09T23:04:02.300Z,99.90
2018-08-09T23:06:32.148Z,99.90
2018-08-09T23:09:02.220Z,99.90
2018-08-09T23:11:31.261Z,99.90
2018-08-09T23:14:00.496Z,99.90
2018-08-09T23:16:30.342Z,99.90
2018-08-09T23:18:59.445Z,99.90
2018-08-09T23:21:28.512Z,99.90
2018-08-09T23:23:57.616Z,99.90
2018-08-09T23:26:28.045Z,99.90
2018-08-09T23:28:57.839Z,99.90
2018-08-09T23:31:26.940Z,99.90
2018-08-09T23:33:56.025Z,99.90
2018-08-09T23:36:25.050Z,99.90
2018-08-09T23:38:54.831Z,99.90
2018-08-09T23:41:23.828Z,99.90
2018-08-09T23:43:52.929Z,99.90
2018-08-09T23:46:21.939Z,99.90
2018-08-09T23:48:51.129Z,99.90
2018-08-09T23:51:20.160Z,99.90
2018-08-09T23:53:49.511Z,99.90
2018-08-09T23:56:18.529Z,99.90
2018-08-09T23:58:47.548Z,99.90
